sensor_id;sensor_type;location;lat;lon;timestamp;P1;durP1;ratioP1;P2;durP2;ratioP2
16450;SDS011;12243;42.708;23.310;2022-08-11T00:02:23;5.88;;;5.40;;
16450;SDS011;12243;42.708;23.310;2022-08-11T00:04:53;6.65;;;6.00;;
16450;SDS011;12243;42.708;23.310;2022-08-11T00:07:21;5.93;;;5.45;;
16450;SDS011;12243;42.708;23.310;2022-08-11T00:09:51;7.35;;;5.85;;
16450;SDS011;12243;42.708;23.310;2022-08-11T00:12:19;6.13;;;5.63;;
16450;SDS011;12243;42.708;23.310;2022-08-11T00:14:48;5.88;;;5.50;;
16450;SDS011;12243;42.708;23.310;2022-08-11T00:17:25;5.78;;;5.32;;
16450;SDS011;12243;42.708;23.310;2022-08-11T00:19:58;6.40;;;5.90;;
16450;SDS011;12243;42.708;23.310;2022-08-11T00:22:27;5.35;;;5.05;;
16450;SDS011;12243;42.708;23.310;2022-08-11T00:24:57;5.80;;;5.30;;
16450;SDS011;12243;42.708;23.310;2022-08-11T00:27:32;5.78;;;5.38;;
16450;SDS011;12243;42.708;23.310;2022-08-11T00:30:00;6.20;;;5.70;;
16450;SDS011;12243;42.708;23.310;2022-08-11T00:32:27;6.07;;;5.65;;
16450;SDS011;12243;42.708;23.310;2022-08-11T00:34:56;6.43;;;5.88;;
16450;SDS011;12243;42.708;23.310;2022-08-11T00:37:23;5.72;;;5.20;;
16450;SDS011;12243;42.708;23.310;2022-08-11T00:39:52;6.50;;;5.50;;
16450;SDS011;12243;42.708;23.310;2022-08-11T00:42:25;6.13;;;5.60;;
16450;SDS011;12243;42.708;23.310;2022-08-11T00:45:06;6.28;;;5.70;;
16450;SDS011;12243;42.708;23.310;2022-08-11T00:47:41;6.07;;;5.57;;
16450;SDS011;12243;42.708;23.310;2022-08-11T00:50:23;6.13;;;5.55;;
16450;SDS011;12243;42.708;23.310;2022-08-11T00:56:10;5.82;;;5.30;;
16450;SDS011;12243;42.708;23.310;2022-08-11T01:01:57;7.80;;;5.85;;
16450;SDS011;12243;42.708;23.310;2022-08-11T01:08:07;6.80;;;6.30;;
16450;SDS011;12243;42.708;23.310;2022-08-11T01:17:08;6.38;;;5.88;;
16450;SDS011;12243;42.708;23.310;2022-08-11T01:29:47;7.40;;;6.50;;
16450;SDS011;12243;42.708;23.310;2022-08-11T01:32:46;6.13;;;5.72;;
16450;SDS011;12243;42.708;23.310;2022-08-11T01:35:36;6.57;;;6.07;;
16450;SDS011;12243;42.708;23.310;2022-08-11T01:38:36;6.05;;;5.63;;
16450;SDS011;12243;42.708;23.310;2022-08-11T01:41:56;6.40;;;5.90;;
16450;SDS011;12243;42.708;23.310;2022-08-11T01:45:05;7.20;;;6.50;;
16450;SDS011;12243;42.708;23.310;2022-08-11T01:47:43;6.38;;;5.85;;
16450;SDS011;12243;42.708;23.310;2022-08-11T01:50:20;6.80;;;6.30;;
16450;SDS011;12243;42.708;23.310;2022-08-11T01:53:07;9.88;;;6.03;;
16450;SDS011;12243;42.708;23.310;2022-08-11T01:55:42;8.38;;;6.18;;
16450;SDS011;12243;42.708;23.310;2022-08-11T01:58:25;6.95;;;6.30;;
16450;SDS011;12243;42.708;23.310;2022-08-11T02:01:01;6.53;;;6.00;;
16450;SDS011;12243;42.708;23.310;2022-08-11T02:03:39;7.15;;;6.38;;
16450;SDS011;12243;42.708;23.310;2022-08-11T02:06:13;6.28;;;5.80;;
16450;SDS011;12243;42.708;23.310;2022-08-11T02:09:10;7.47;;;6.75;;
16450;SDS011;12243;42.708;23.310;2022-08-11T02:11:45;6.47;;;5.88;;
16450;SDS011;12243;42.708;23.310;2022-08-11T02:14:16;8.32;;;6.25;;
16450;SDS011;12243;42.708;23.310;2022-08-11T02:16:53;6.53;;;6.13;;
16450;SDS011;12243;42.708;23.310;2022-08-11T02:19:29;6.63;;;5.97;;
16450;SDS011;12243;42.708;23.310;2022-08-11T02:22:22;7.05;;;6.55;;
16450;SDS011;12243;42.708;23.310;2022-08-11T02:25:19;7.00;;;6.38;;
16450;SDS011;12243;42.708;23.310;2022-08-11T02:27:54;6.88;;;6.38;;
16450;SDS011;12243;42.708;23.310;2022-08-11T02:30:27;7.97;;;7.15;;
16450;SDS011;12243;42.708;23.310;2022-08-11T02:33:06;7.30;;;6.80;;
16450;SDS011;12243;42.708;23.310;2022-08-11T02:35:51;8.02;;;7.20;;
16450;SDS011;12243;42.708;23.310;2022-08-11T02:38:25;7.28;;;6.68;;
16450;SDS011;12243;42.708;23.310;2022-08-11T02:40:58;7.70;;;6.93;;
16450;SDS011;12243;42.708;23.310;2022-08-11T02:43:49;7.13;;;6.63;;
16450;SDS011;12243;42.708;23.310;2022-08-11T02:46:30;7.65;;;7.03;;
16450;SDS011;12243;42.708;23.310;2022-08-11T02:49:10;7.72;;;7.18;;
16450;SDS011;12243;42.708;23.310;2022-08-11T02:52:02;8.05;;;6.97;;
16450;SDS011;12243;42.708;23.310;2022-08-11T02:54:34;8.23;;;7.60;;
16450;SDS011;12243;42.708;23.310;2022-08-11T02:57:11;8.57;;;7.67;;
16450;SDS011;12243;42.708;23.310;2022-08-11T02:59:47;7.80;;;7.00;;
16450;SDS011;12243;42.708;23.310;2022-08-11T03:02:25;8.68;;;7.82;;
16450;SDS011;12243;42.708;23.310;2022-08-11T03:05:02;7.80;;;7.20;;
16450;SDS011;12243;42.708;23.310;2022-08-11T03:07:40;8.07;;;7.50;;
16450;SDS011;12243;42.708;23.310;2022-08-11T03:10:21;10.60;;;7.90;;
16450;SDS011;12243;42.708;23.310;2022-08-11T03:12:56;8.07;;;7.27;;
16450;SDS011;12243;42.708;23.310;2022-08-11T03:15:47;8.63;;;8.02;;
16450;SDS011;12243;42.708;23.310;2022-08-11T03:18:40;8.57;;;7.23;;
16450;SDS011;12243;42.708;23.310;2022-08-11T03:21:16;8.73;;;8.00;;
16450;SDS011;12243;42.708;23.310;2022-08-11T03:23:48;11.63;;;7.60;;
16450;SDS011;12243;42.708;23.310;2022-08-11T03:26:25;8.63;;;7.80;;
16450;SDS011;12243;42.708;23.310;2022-08-11T03:29:03;8.75;;;7.97;;
16450;SDS011;12243;42.708;23.310;2022-08-11T03:31:34;8.63;;;8.03;;
16450;SDS011;12243;42.708;23.310;2022-08-11T03:34:07;9.43;;;8.23;;
16450;SDS011;12243;42.708;23.310;2022-08-11T03:39:32;9.15;;;7.90;;
16450;SDS011;12243;42.708;23.310;2022-08-11T03:42:13;11.43;;;8.25;;
16450;SDS011;12243;42.708;23.310;2022-08-11T03:44:54;8.13;;;7.40;;
16450;SDS011;12243;42.708;23.310;2022-08-11T03:50:26;8.80;;;8.00;;
16450;SDS011;12243;42.708;23.310;2022-08-11T03:53:09;8.20;;;7.50;;
16450;SDS011;12243;42.708;23.310;2022-08-11T03:55:57;8.07;;;7.30;;
16450;SDS011;12243;42.708;23.310;2022-08-11T03:59:01;9.13;;;7.10;;
16450;SDS011;12243;42.708;23.310;2022-08-11T04:01:59;8.20;;;7.60;;
16450;SDS011;12243;42.708;23.310;2022-08-11T04:07:52;7.63;;;7.03;;
16450;SDS011;12243;42.708;23.310;2022-08-11T04:10:55;8.05;;;7.22;;
16450;SDS011;12243;42.708;23.310;2022-08-11T04:16:53;7.47;;;6.95;;
16450;SDS011;12243;42.708;23.310;2022-08-11T04:19:50;7.22;;;6.63;;
16450;SDS011;12243;42.708;23.310;2022-08-11T04:22:48;7.55;;;6.85;;
16450;SDS011;12243;42.708;23.310;2022-08-11T04:25:48;7.35;;;6.75;;
16450;SDS011;12243;42.708;23.310;2022-08-11T04:28:37;7.32;;;6.72;;
16450;SDS011;12243;42.708;23.310;2022-08-11T04:31:16;9.68;;;6.30;;
16450;SDS011;12243;42.708;23.310;2022-08-11T04:34:05;6.95;;;6.30;;
16450;SDS011;12243;42.708;23.310;2022-08-11T04:37:07;6.97;;;6.45;;
16450;SDS011;12243;42.708;23.310;2022-08-11T04:40:17;7.43;;;6.78;;
16450;SDS011;12243;42.708;23.310;2022-08-11T04:49:22;10.00;;;7.13;;
16450;SDS011;12243;42.708;23.310;2022-08-11T04:52:41;10.77;;;7.07;;
16450;SDS011;12243;42.708;23.310;2022-08-11T04:55:54;8.00;;;6.60;;
16450;SDS011;12243;42.708;23.310;2022-08-11T04:59:02;9.55;;;6.93;;
16450;SDS011;12243;42.708;23.310;2022-08-11T05:02:14;7.95;;;7.18;;
16450;SDS011;12243;42.708;23.310;2022-08-11T05:05:17;8.52;;;7.72;;
16450;SDS011;12243;42.708;23.310;2022-08-11T05:08:14;7.95;;;7.20;;
16450;SDS011;12243;42.708;23.310;2022-08-11T05:11:05;7.63;;;7.03;;
16450;SDS011;12243;42.708;23.310;2022-08-11T05:13:44;8.63;;;6.70;;
16450;SDS011;12243;42.708;23.310;2022-08-11T05:16:33;10.85;;;6.80;;
16450;SDS011;12243;42.708;23.310;2022-08-11T05:19:25;7.45;;;6.75;;
16450;SDS011;12243;42.708;23.310;2022-08-11T05:22:11;7.80;;;6.93;;
16450;SDS011;12243;42.708;23.310;2022-08-11T05:24:59;12.68;;;7.20;;
16450;SDS011;12243;42.708;23.310;2022-08-11T05:27:49;9.00;;;7.68;;
16450;SDS011;12243;42.708;23.310;2022-08-11T05:30:40;9.70;;;6.60;;
16450;SDS011;12243;42.708;23.310;2022-08-11T05:33:29;7.93;;;6.50;;
16450;SDS011;12243;42.708;23.310;2022-08-11T05:36:21;6.80;;;6.20;;
16450;SDS011;12243;42.708;23.310;2022-08-11T05:39:12;8.43;;;7.40;;
16450;SDS011;12243;42.708;23.310;2022-08-11T05:41:59;8.32;;;6.95;;
16450;SDS011;12243;42.708;23.310;2022-08-11T05:44:45;7.03;;;6.38;;
16450;SDS011;12243;42.708;23.310;2022-08-11T05:47:31;8.80;;;7.18;;
16450;SDS011;12243;42.708;23.310;2022-08-11T05:50:18;8.50;;;7.65;;
16450;SDS011;12243;42.708;23.310;2022-08-11T05:53:07;8.73;;;7.40;;
16450;SDS011;12243;42.708;23.310;2022-08-11T05:55:55;8.80;;;7.10;;
16450;SDS011;12243;42.708;23.310;2022-08-11T05:58:41;7.25;;;6.57;;
16450;SDS011;12243;42.708;23.310;2022-08-11T06:01:11;7.07;;;6.50;;
16450;SDS011;12243;42.708;23.310;2022-08-11T06:03:41;8.15;;;7.38;;
16450;SDS011;12243;42.708;23.310;2022-08-11T06:06:24;8.10;;;7.35;;
16450;SDS011;12243;42.708;23.310;2022-08-11T06:08:53;7.95;;;7.07;;
16450;SDS011;12243;42.708;23.310;2022-08-11T06:11:22;7.80;;;7.20;;
16450;SDS011;12243;42.708;23.310;2022-08-11T06:13:50;8.68;;;7.75;;
16450;SDS011;12243;42.708;23.310;2022-08-11T06:16:20;9.85;;;7.03;;
16450;SDS011;12243;42.708;23.310;2022-08-11T06:18:51;10.45;;;7.38;;
16450;SDS011;12243;42.708;23.310;2022-08-11T06:21:19;7.80;;;7.15;;
16450;SDS011;12243;42.708;23.310;2022-08-11T06:23:47;7.03;;;6.45;;
16450;SDS011;12243;42.708;23.310;2022-08-11T06:26:14;7.63;;;6.90;;
16450;SDS011;12243;42.708;23.310;2022-08-11T06:28:44;6.93;;;6.30;;
16450;SDS011;12243;42.708;23.310;2022-08-11T06:31:12;7.60;;;6.90;;
16450;SDS011;12243;42.708;23.310;2022-08-11T06:33:49;7.72;;;7.20;;
16450;SDS011;12243;42.708;23.310;2022-08-11T06:36:22;9.00;;;7.00;;
16450;SDS011;12243;42.708;23.310;2022-08-11T06:38:59;9.13;;;7.43;;
16450;SDS011;12243;42.708;23.310;2022-08-11T06:41:37;6.97;;;6.28;;
16450;SDS011;12243;42.708;23.310;2022-08-11T06:44:21;6.65;;;6.00;;
16450;SDS011;12243;42.708;23.310;2022-08-11T06:46:52;7.65;;;6.90;;
16450;SDS011;12243;42.708;23.310;2022-08-11T06:49:31;6.88;;;6.38;;
16450;SDS011;12243;42.708;23.310;2022-08-11T06:52:18;6.25;;;5.65;;
16450;SDS011;12243;42.708;23.310;2022-08-11T06:54:53;6.70;;;5.78;;
16450;SDS011;12243;42.708;23.310;2022-08-11T06:57:31;5.47;;;5.18;;
16450;SDS011;12243;42.708;23.310;2022-08-11T07:00:18;6.18;;;5.68;;
16450;SDS011;12243;42.708;23.310;2022-08-11T07:02:57;6.22;;;5.82;;
16450;SDS011;12243;42.708;23.310;2022-08-11T07:05:30;6.03;;;5.63;;
16450;SDS011;12243;42.708;23.310;2022-08-11T07:08:16;6.60;;;6.20;;
16450;SDS011;12243;42.708;23.310;2022-08-11T07:14:52;5.88;;;5.53;;
16450;SDS011;12243;42.708;23.310;2022-08-11T07:17:42;5.68;;;5.18;;
16450;SDS011;12243;42.708;23.310;2022-08-11T07:20:13;5.40;;;5.00;;
16450;SDS011;12243;42.708;23.310;2022-08-11T07:23:11;5.28;;;4.65;;
16450;SDS011;12243;42.708;23.310;2022-08-11T07:25:57;5.40;;;4.93;;
16450;SDS011;12243;42.708;23.310;2022-08-11T07:28:46;5.80;;;5.30;;
16450;SDS011;12243;42.708;23.310;2022-08-11T07:31:25;6.35;;;5.22;;
16450;SDS011;12243;42.708;23.310;2022-08-11T07:34:01;5.15;;;4.85;;
16450;SDS011;12243;42.708;23.310;2022-08-11T07:36:38;6.28;;;4.90;;
16450;SDS011;12243;42.708;23.310;2022-08-11T07:39:07;4.93;;;4.55;;
16450;SDS011;12243;42.708;23.310;2022-08-11T07:41:39;5.13;;;4.80;;
16450;SDS011;12243;42.708;23.310;2022-08-11T07:44:07;5.30;;;4.93;;
16450;SDS011;12243;42.708;23.310;2022-08-11T07:46:37;5.43;;;4.90;;
16450;SDS011;12243;42.708;23.310;2022-08-11T07:49:25;3.78;;;3.65;;
16450;SDS011;12243;42.708;23.310;2022-08-11T07:52:11;4.97;;;4.22;;
16450;SDS011;12243;42.708;23.310;2022-08-11T07:54:58;4.88;;;4.43;;
16450;SDS011;12243;42.708;23.310;2022-08-11T07:57:26;4.72;;;4.15;;
16450;SDS011;12243;42.708;23.310;2022-08-11T08:00:12;4.50;;;4.20;;
16450;SDS011;12243;42.708;23.310;2022-08-11T08:02:57;3.97;;;3.78;;
16450;SDS011;12243;42.708;23.310;2022-08-11T08:05:45;5.00;;;4.60;;
16450;SDS011;12243;42.708;23.310;2022-08-11T08:08:31;4.15;;;3.85;;
16450;SDS011;12243;42.708;23.310;2022-08-11T08:11:15;4.63;;;4.43;;
16450;SDS011;12243;42.708;23.310;2022-08-11T08:14:03;4.38;;;4.03;;
16450;SDS011;12243;42.708;23.310;2022-08-11T08:16:48;5.00;;;4.13;;
16450;SDS011;12243;42.708;23.310;2022-08-11T08:19:33;4.78;;;4.38;;
16450;SDS011;12243;42.708;23.310;2022-08-11T08:22:01;4.53;;;4.25;;
16450;SDS011;12243;42.708;23.310;2022-08-11T08:24:29;9.30;;;4.40;;
16450;SDS011;12243;42.708;23.310;2022-08-11T08:26:57;6.22;;;4.82;;
16450;SDS011;12243;42.708;23.310;2022-08-11T08:29:24;6.60;;;4.82;;
16450;SDS011;12243;42.708;23.310;2022-08-11T08:32:11;4.95;;;4.55;;
16450;SDS011;12243;42.708;23.310;2022-08-11T08:34:40;4.72;;;4.53;;
16450;SDS011;12243;42.708;23.310;2022-08-11T08:37:09;5.10;;;4.80;;
16450;SDS011;12243;42.708;23.310;2022-08-11T08:39:37;4.63;;;4.32;;
16450;SDS011;12243;42.708;23.310;2022-08-11T08:42:06;4.18;;;3.97;;
16450;SDS011;12243;42.708;23.310;2022-08-11T08:44:38;4.28;;;3.90;;
16450;SDS011;12243;42.708;23.310;2022-08-11T08:47:10;5.00;;;4.43;;
16450;SDS011;12243;42.708;23.310;2022-08-11T08:49:40;5.38;;;5.03;;
16450;SDS011;12243;42.708;23.310;2022-08-11T08:52:15;5.10;;;4.28;;
16450;SDS011;12243;42.708;23.310;2022-08-11T08:54:46;4.60;;;4.40;;
16450;SDS011;12243;42.708;23.310;2022-08-11T08:57:18;4.90;;;4.53;;
16450;SDS011;12243;42.708;23.310;2022-08-11T08:59:47;4.93;;;4.53;;
16450;SDS011;12243;42.708;23.310;2022-08-11T09:02:17;5.82;;;5.43;;
16450;SDS011;12243;42.708;23.310;2022-08-11T09:04:46;5.30;;;4.82;;
16450;SDS011;12243;42.708;23.310;2022-08-11T09:07:15;5.65;;;5.25;;
16450;SDS011;12243;42.708;23.310;2022-08-11T09:09:45;5.22;;;4.93;;
16450;SDS011;12243;42.708;23.310;2022-08-11T09:12:14;5.55;;;4.85;;
16450;SDS011;12243;42.708;23.310;2022-08-11T09:14:45;5.10;;;4.72;;
16450;SDS011;12243;42.708;23.310;2022-08-11T09:17:28;4.50;;;4.25;;
16450;SDS011;12243;42.708;23.310;2022-08-11T09:19:58;4.65;;;4.45;;
16450;SDS011;12243;42.708;23.310;2022-08-11T09:22:29;4.68;;;4.38;;
16450;SDS011;12243;42.708;23.310;2022-08-11T09:25:16;4.65;;;4.35;;
16450;SDS011;12243;42.708;23.310;2022-08-11T09:28:18;4.15;;;3.85;;
16450;SDS011;12243;42.708;23.310;2022-08-11T09:30:48;4.70;;;4.30;;
16450;SDS011;12243;42.708;23.310;2022-08-11T09:33:18;5.07;;;4.78;;
16450;SDS011;12243;42.708;23.310;2022-08-11T09:35:46;5.15;;;4.65;;
16450;SDS011;12243;42.708;23.310;2022-08-11T09:38:17;4.60;;;4.38;;
16450;SDS011;12243;42.708;23.310;2022-08-11T09:41:08;5.78;;;5.43;;
16450;SDS011;12243;42.708;23.310;2022-08-11T09:43:38;5.18;;;4.68;;
16450;SDS011;12243;42.708;23.310;2022-08-11T09:46:24;5.60;;;5.18;;
16450;SDS011;12243;42.708;23.310;2022-08-11T09:48:54;5.53;;;5.05;;
16450;SDS011;12243;42.708;23.310;2022-08-11T09:51:24;5.05;;;4.75;;
16450;SDS011;12243;42.708;23.310;2022-08-11T09:53:55;4.78;;;4.50;;
16450;SDS011;12243;42.708;23.310;2022-08-11T09:56:24;4.85;;;4.45;;
16450;SDS011;12243;42.708;23.310;2022-08-11T09:59:09;4.80;;;4.47;;
16450;SDS011;12243;42.708;23.310;2022-08-11T10:01:38;4.47;;;4.28;;
16450;SDS011;12243;42.708;23.310;2022-08-11T10:04:09;4.50;;;4.20;;
16450;SDS011;12243;42.708;23.310;2022-08-11T10:06:40;5.00;;;4.60;;
16450;SDS011;12243;42.708;23.310;2022-08-11T10:09:32;4.80;;;4.50;;
16450;SDS011;12243;42.708;23.310;2022-08-11T10:12:02;4.93;;;4.63;;
16450;SDS011;12243;42.708;23.310;2022-08-11T10:14:33;5.68;;;5.25;;
16450;SDS011;12243;42.708;23.310;2022-08-11T10:17:23;4.78;;;4.47;;
16450;SDS011;12243;42.708;23.310;2022-08-11T10:19:51;4.88;;;4.55;;
16450;SDS011;12243;42.708;23.310;2022-08-11T10:22:21;4.97;;;4.68;;
16450;SDS011;12243;42.708;23.310;2022-08-11T10:25:08;4.50;;;4.15;;
16450;SDS011;12243;42.708;23.310;2022-08-11T10:27:53;5.20;;;4.80;;
16450;SDS011;12243;42.708;23.310;2022-08-11T10:30:24;4.72;;;4.30;;
16450;SDS011;12243;42.708;23.310;2022-08-11T10:33:09;5.13;;;4.50;;
16450;SDS011;12243;42.708;23.310;2022-08-11T10:35:54;4.32;;;4.00;;
16450;SDS011;12243;42.708;23.310;2022-08-11T10:38:22;3.90;;;3.60;;
16450;SDS011;12243;42.708;23.310;2022-08-11T10:40:52;4.43;;;4.05;;
16450;SDS011;12243;42.708;23.310;2022-08-11T10:43:34;4.47;;;4.07;;
16450;SDS011;12243;42.708;23.310;2022-08-11T10:46:04;4.65;;;4.10;;
16450;SDS011;12243;42.708;23.310;2022-08-11T10:48:46;5.45;;;4.50;;
16450;SDS011;12243;42.708;23.310;2022-08-11T10:51:14;4.82;;;4.47;;
16450;SDS011;12243;42.708;23.310;2022-08-11T10:53:43;4.53;;;4.22;;
16450;SDS011;12243;42.708;23.310;2022-08-11T10:56:32;4.63;;;4.32;;
16450;SDS011;12243;42.708;23.310;2022-08-11T10:59:19;4.47;;;4.15;;
16450;SDS011;12243;42.708;23.310;2022-08-11T11:01:48;5.10;;;4.80;;
16450;SDS011;12243;42.708;23.310;2022-08-11T11:04:19;4.72;;;4.43;;
16450;SDS011;12243;42.708;23.310;2022-08-11T11:06:50;5.07;;;4.28;;
16450;SDS011;12243;42.708;23.310;2022-08-11T11:09:27;8.43;;;4.53;;
16450;SDS011;12243;42.708;23.310;2022-08-11T11:11:59;6.18;;;4.22;;
16450;SDS011;12243;42.708;23.310;2022-08-11T11:14:50;5.40;;;4.90;;
16450;SDS011;12243;42.708;23.310;2022-08-11T11:17:36;4.53;;;4.30;;
16450;SDS011;12243;42.708;23.310;2022-08-11T11:20:26;4.93;;;4.53;;
16450;SDS011;12243;42.708;23.310;2022-08-11T11:23:00;4.63;;;4.32;;
16450;SDS011;12243;42.708;23.310;2022-08-11T11:25:35;5.18;;;4.88;;
16450;SDS011;12243;42.708;23.310;2022-08-11T11:28:41;4.65;;;4.25;;
16450;SDS011;12243;42.708;23.310;2022-08-11T11:31:22;4.97;;;4.57;;
16450;SDS011;12243;42.708;23.310;2022-08-11T11:34:03;4.90;;;4.55;;
16450;SDS011;12243;42.708;23.310;2022-08-11T11:36:43;5.10;;;4.70;;
16450;SDS011;12243;42.708;23.310;2022-08-11T11:39:12;5.85;;;5.38;;
16450;SDS011;12243;42.708;23.310;2022-08-11T11:41:44;5.25;;;4.78;;
16450;SDS011;12243;42.708;23.310;2022-08-11T11:44:12;5.18;;;4.78;;
16450;SDS011;12243;42.708;23.310;2022-08-11T11:46:40;7.20;;;4.85;;
16450;SDS011;12243;42.708;23.310;2022-08-11T11:49:11;5.63;;;4.95;;
16450;SDS011;12243;42.708;23.310;2022-08-11T11:51:40;7.72;;;5.10;;
16450;SDS011;12243;42.708;23.310;2022-08-11T11:54:07;6.13;;;5.60;;
16450;SDS011;12243;42.708;23.310;2022-08-11T11:56:35;4.97;;;4.68;;
16450;SDS011;12243;42.708;23.310;2022-08-11T11:59:03;5.35;;;5.05;;
16450;SDS011;12243;42.708;23.310;2022-08-11T12:01:49;4.75;;;4.53;;
16450;SDS011;12243;42.708;23.310;2022-08-11T12:04:18;4.13;;;3.83;;
16450;SDS011;12243;42.708;23.310;2022-08-11T12:06:46;7.35;;;4.30;;
16450;SDS011;12243;42.708;23.310;2022-08-11T12:09:14;4.53;;;3.90;;
16450;SDS011;12243;42.708;23.310;2022-08-11T12:11:46;4.32;;;3.90;;
16450;SDS011;12243;42.708;23.310;2022-08-11T12:14:47;4.10;;;3.90;;
16450;SDS011;12243;42.708;23.310;2022-08-11T12:17:15;4.57;;;4.18;;
16450;SDS011;12243;42.708;23.310;2022-08-11T12:19:42;5.40;;;4.40;;
16450;SDS011;12243;42.708;23.310;2022-08-11T12:22:10;4.38;;;4.15;;
16450;SDS011;12243;42.708;23.310;2022-08-11T12:24:56;4.38;;;3.80;;
16450;SDS011;12243;42.708;23.310;2022-08-11T12:27:40;4.40;;;4.10;;
16450;SDS011;12243;42.708;23.310;2022-08-11T12:30:08;6.30;;;4.03;;
16450;SDS011;12243;42.708;23.310;2022-08-11T12:32:37;4.07;;;3.88;;
16450;SDS011;12243;42.708;23.310;2022-08-11T12:35:05;3.50;;;3.30;;
16450;SDS011;12243;42.708;23.310;2022-08-11T12:37:34;3.03;;;2.90;;
16450;SDS011;12243;42.708;23.310;2022-08-11T12:40:06;3.75;;;3.55;;
16450;SDS011;12243;42.708;23.310;2022-08-11T12:42:54;3.72;;;3.45;;
16450;SDS011;12243;42.708;23.310;2022-08-11T12:45:41;3.58;;;3.40;;
16450;SDS011;12243;42.708;23.310;2022-08-11T12:48:11;4.28;;;3.75;;
16450;SDS011;12243;42.708;23.310;2022-08-11T12:51:01;5.10;;;3.92;;
16450;SDS011;12243;42.708;23.310;2022-08-11T12:53:51;3.10;;;2.90;;
16450;SDS011;12243;42.708;23.310;2022-08-11T12:56:20;3.20;;;3.05;;
16450;SDS011;12243;42.708;23.310;2022-08-11T12:59:07;3.30;;;3.05;;
16450;SDS011;12243;42.708;23.310;2022-08-11T13:01:52;4.20;;;3.20;;
16450;SDS011;12243;42.708;23.310;2022-08-11T13:04:38;3.90;;;3.65;;
16450;SDS011;12243;42.708;23.310;2022-08-11T13:07:24;3.95;;;3.75;;
16450;SDS011;12243;42.708;23.310;2022-08-11T13:09:52;4.38;;;4.00;;
16450;SDS011;12243;42.708;23.310;2022-08-11T13:12:20;4.35;;;3.63;;
16450;SDS011;12243;42.708;23.310;2022-08-11T13:15:07;3.50;;;3.30;;
16450;SDS011;12243;42.708;23.310;2022-08-11T13:17:36;3.92;;;3.45;;
16450;SDS011;12243;42.708;23.310;2022-08-11T13:20:07;3.50;;;3.30;;
16450;SDS011;12243;42.708;23.310;2022-08-11T13:22:36;4.85;;;3.45;;
16450;SDS011;12243;42.708;23.310;2022-08-11T13:25:05;3.45;;;3.28;;
16450;SDS011;12243;42.708;23.310;2022-08-11T13:27:33;3.80;;;3.50;;
16450;SDS011;12243;42.708;23.310;2022-08-11T13:30:00;3.83;;;3.40;;
16450;SDS011;12243;42.708;23.310;2022-08-11T13:32:45;3.50;;;3.30;;
16450;SDS011;12243;42.708;23.310;2022-08-11T13:35:14;2.85;;;2.75;;
16450;SDS011;12243;42.708;23.310;2022-08-11T13:37:43;3.53;;;3.15;;
16450;SDS011;12243;42.708;23.310;2022-08-11T13:40:12;3.00;;;2.80;;
16450;SDS011;12243;42.708;23.310;2022-08-11T13:42:42;3.17;;;2.90;;
16450;SDS011;12243;42.708;23.310;2022-08-11T13:45:10;3.00;;;2.90;;
16450;SDS011;12243;42.708;23.310;2022-08-11T13:47:37;2.78;;;2.67;;
16450;SDS011;12243;42.708;23.310;2022-08-11T13:50:05;2.88;;;2.78;;
16450;SDS011;12243;42.708;23.310;2022-08-11T13:52:35;3.50;;;3.22;;
16450;SDS011;12243;42.708;23.310;2022-08-11T13:55:04;3.17;;;3.08;;
16450;SDS011;12243;42.708;23.310;2022-08-11T13:57:34;2.80;;;2.70;;
16450;SDS011;12243;42.708;23.310;2022-08-11T14:00:03;3.13;;;2.92;;
16450;SDS011;12243;42.708;23.310;2022-08-11T14:02:39;2.80;;;2.70;;
16450;SDS011;12243;42.708;23.310;2022-08-11T14:05:09;3.95;;;3.10;;
16450;SDS011;12243;42.708;23.310;2022-08-11T14:07:43;2.67;;;2.58;;
16450;SDS011;12243;42.708;23.310;2022-08-11T14:10:15;3.53;;;3.22;;
16450;SDS011;12243;42.708;23.310;2022-08-11T14:12:45;3.97;;;3.53;;
16450;SDS011;12243;42.708;23.310;2022-08-11T14:15:37;3.72;;;3.53;;
16450;SDS011;12243;42.708;23.310;2022-08-11T14:18:10;3.58;;;3.38;;
16450;SDS011;12243;42.708;23.310;2022-08-11T14:20:42;6.28;;;3.45;;
16450;SDS011;12243;42.708;23.310;2022-08-11T14:23:31;4.50;;;4.10;;
16450;SDS011;12243;42.708;23.310;2022-08-11T14:26:03;3.53;;;3.33;;
16450;SDS011;12243;42.708;23.310;2022-08-11T14:28:50;4.53;;;3.45;;
16450;SDS011;12243;42.708;23.310;2022-08-11T14:31:20;4.05;;;3.58;;
16450;SDS011;12243;42.708;23.310;2022-08-11T14:33:49;5.63;;;3.85;;
16450;SDS011;12243;42.708;23.310;2022-08-11T14:36:19;4.35;;;3.42;;
16450;SDS011;12243;42.708;23.310;2022-08-11T14:38:49;4.68;;;3.72;;
16450;SDS011;12243;42.708;23.310;2022-08-11T14:41:17;4.57;;;3.65;;
16450;SDS011;12243;42.708;23.310;2022-08-11T14:44:03;4.60;;;3.70;;
16450;SDS011;12243;42.708;23.310;2022-08-11T14:46:49;3.80;;;3.60;;
16450;SDS011;12243;42.708;23.310;2022-08-11T14:49:32;3.70;;;3.38;;
16450;SDS011;12243;42.708;23.310;2022-08-11T14:52:02;3.97;;;3.78;;
16450;SDS011;12243;42.708;23.310;2022-08-11T14:54:33;4.20;;;3.90;;
16450;SDS011;12243;42.708;23.310;2022-08-11T14:57:19;3.70;;;3.60;;
16450;SDS011;12243;42.708;23.310;2022-08-11T14:59:47;4.15;;;3.95;;
16450;SDS011;12243;42.708;23.310;2022-08-11T15:02:17;3.83;;;3.53;;
16450;SDS011;12243;42.708;23.310;2022-08-11T15:05:03;3.42;;;3.22;;
16450;SDS011;12243;42.708;23.310;2022-08-11T15:07:31;5.43;;;3.63;;
16450;SDS011;12243;42.708;23.310;2022-08-11T15:10:02;4.30;;;4.00;;
16450;SDS011;12243;42.708;23.310;2022-08-11T15:12:31;3.70;;;3.50;;
16450;SDS011;12243;42.708;23.310;2022-08-11T15:14:59;6.43;;;3.90;;
16450;SDS011;12243;42.708;23.310;2022-08-11T15:17:44;3.83;;;3.50;;
16450;SDS011;12243;42.708;23.310;2022-08-11T15:20:14;4.18;;;3.78;;
16450;SDS011;12243;42.708;23.310;2022-08-11T15:23:00;3.67;;;3.38;;
16450;SDS011;12243;42.708;23.310;2022-08-11T15:25:47;5.63;;;3.40;;
16450;SDS011;12243;42.708;23.310;2022-08-11T15:28:16;6.80;;;3.45;;
16450;SDS011;12243;42.708;23.310;2022-08-11T15:31:02;3.85;;;3.53;;
16450;SDS011;12243;42.708;23.310;2022-08-11T15:34:03;4.53;;;3.65;;
16450;SDS011;12243;42.708;23.310;2022-08-11T15:36:50;3.78;;;3.47;;
16450;SDS011;12243;42.708;23.310;2022-08-11T15:39:41;3.60;;;3.40;;
16450;SDS011;12243;42.708;23.310;2022-08-11T15:42:28;4.10;;;3.90;;
16450;SDS011;12243;42.708;23.310;2022-08-11T15:45:14;3.88;;;3.58;;
16450;SDS011;12243;42.708;23.310;2022-08-11T15:48:05;4.70;;;3.78;;
16450;SDS011;12243;42.708;23.310;2022-08-11T15:50:37;3.85;;;3.53;;
16450;SDS011;12243;42.708;23.310;2022-08-11T15:53:07;3.72;;;3.53;;
16450;SDS011;12243;42.708;23.310;2022-08-11T15:55:38;3.80;;;3.60;;
16450;SDS011;12243;42.708;23.310;2022-08-11T15:58:07;3.83;;;3.63;;
16450;SDS011;12243;42.708;23.310;2022-08-11T16:00:52;4.70;;;3.50;;
16450;SDS011;12243;42.708;23.310;2022-08-11T16:03:40;4.10;;;3.83;;
16450;SDS011;12243;42.708;23.310;2022-08-11T16:06:28;5.60;;;3.60;;
16450;SDS011;12243;42.708;23.310;2022-08-11T16:08:57;4.03;;;3.75;;
16450;SDS011;12243;42.708;23.310;2022-08-11T16:11:30;4.18;;;3.80;;
16450;SDS011;12243;42.708;23.310;2022-08-11T16:14:00;4.20;;;3.88;;
16450;SDS011;12243;42.708;23.310;2022-08-11T16:16:46;4.13;;;3.83;;
16450;SDS011;12243;42.708;23.310;2022-08-11T16:19:15;4.18;;;3.67;;
16450;SDS011;12243;42.708;23.310;2022-08-11T16:21:44;5.00;;;4.60;;
16450;SDS011;12243;42.708;23.310;2022-08-11T16:24:15;4.18;;;3.88;;
16450;SDS011;12243;42.708;23.310;2022-08-11T16:26:44;4.00;;;3.60;;
16450;SDS011;12243;42.708;23.310;2022-08-11T16:29:14;4.40;;;4.03;;